Time;durP1;ratioP1;P1;durP2;ratioP2;P2;SDS_P1;SDS_P2;PMS_P1;PMS_P2;Temp;Humidity;BMP_temperature;BMP_pressure;BME280_temperature;BME280_humidity;BME280_pressure;Samples;Min_cycle;Max_cycle;Signal;HPM_P1;HPM_P2
2022/05/14 00:03:10;;;;;;;8.70;4.28;;;9.60;99.90;;;;;;7349955;32;20095;-61
2022/05/14 00:07:11;;;;;;;6.50;3.97;;;9.60;99.90;;;;;;7363176;32;20129;-61
2022/05/14 00:15:42;;;;;;;7.90;3.62;;;9.50;99.90;;;;;;7360633;32;20173;-61
2022/05/14 00:19:43;;;;;;;7.70;4.20;;;9.30;99.90;;;;;;7354088;32;20200;-61
2022/05/14 00:23:45;;;;;;;9.05;4.40;;;9.30;99.90;;;;;;7356227;32;20103;-61
2022/05/14 00:27:48;;;;;;;8.35;3.72;;;9.20;99.90;;;;;;7360457;32;20757;-61
2022/05/14 00:31:50;;;;;;;6.80;4.10;;;9.20;99.90;;;;;;7350449;32;20126;-61
2022/05/14 00:35:52;;;;;;;10.50;4.00;;;9.10;99.90;;;;;;7354170;32;20703;-62
2022/05/14 00:39:53;;;;;;;5.82;3.67;;;9.00;99.90;;;;;;7355034;32;20656;-61
2022/05/14 00:44:00;;;;;;;7.70;3.72;;;9.00;99.90;;;;;;7358860;32;20107;-60
2022/05/14 00:48:02;;;;;;;4.50;3.42;;;9.00;99.90;;;;;;7351292;32;20491;-63
2022/05/14 00:52:05;;;;;;;7.28;4.12;;;8.90;99.90;;;;;;7367749;32;20131;-60
2022/05/14 00:56:11;;;;;;;6.97;3.60;;;8.90;99.90;;;;;;7358985;32;20260;-60
2022/05/14 01:00:17;;;;;;;6.53;3.22;;;8.90;99.90;;;;;;7361600;32;20217;-60
2022/05/14 01:04:20;;;;;;;6.57;3.62;;;8.90;99.90;;;;;;7365266;32;20130;-61
2022/05/14 01:08:22;;;;;;;6.87;3.20;;;8.80;99.90;;;;;;7340570;32;20545;-60
2022/05/14 01:12:26;;;;;;;7.85;3.50;;;8.70;99.90;;;;;;7345368;32;20258;-60
2022/05/14 01:16:29;;;;;;;6.40;3.22;;;8.70;99.90;;;;;;7364853;32;20391;-60
2022/05/14 01:20:35;;;;;;;10.25;3.75;;;8.60;99.90;;;;;;7344164;32;20107;-60
2022/05/14 01:29:11;;;;;;;6.43;3.10;;;8.50;99.90;;;;;;7359190;32;20226;-60
2022/05/14 01:33:13;;;;;;;6.45;3.25;;;8.40;99.90;;;;;;7364453;32;20178;-61
2022/05/14 01:37:15;;;;;;;9.13;3.28;;;8.40;99.90;;;;;;7361899;32;20102;-60
2022/05/14 01:41:17;;;;;;;5.35;3.10;;;8.30;99.90;;;;;;7358054;32;20118;-60
2022/05/14 01:45:18;;;;;;;6.45;3.10;;;8.30;99.90;;;;;;7353942;32;20252;-60
2022/05/14 01:49:20;;;;;;;7.85;3.00;;;8.30;99.90;;;;;;7357760;32;20164;-60
2022/05/14 01:53:22;;;;;;;8.68;2.95;;;8.20;99.90;;;;;;7351936;32;20246;-60
2022/05/14 01:57:24;;;;;;;7.07;3.20;;;8.10;99.90;;;;;;7362983;32;20528;-59
2022/05/14 02:01:27;;;;;;;8.60;3.28;;;8.10;99.90;;;;;;7359256;32;20314;-60
2022/05/14 02:05:29;;;;;;;6.57;3.30;;;8.00;99.90;;;;;;7359139;32;20103;-61
2022/05/14 02:09:31;;;;;;;4.55;3.08;;;8.00;99.90;;;;;;7351527;32;20446;-61
2022/05/14 02:13:32;;;;;;;5.85;3.12;;;7.90;99.90;;;;;;7364366;32;20193;-60
2022/05/14 02:17:34;;;;;;;4.75;3.10;;;7.90;99.90;;;;;;7356009;32;20107;-60
2022/05/14 02:21:36;;;;;;;5.75;3.50;;;7.90;99.90;;;;;;7355767;32;20257;-61
2022/05/14 02:25:39;;;;;;;7.00;3.22;;;7.90;99.90;;;;;;7361595;32;20238;-61
2022/05/14 02:29:50;;;;;;;5.60;3.30;;;7.80;99.90;;;;;;7359165;32;20233;-61
2022/05/14 02:33:52;;;;;;;6.07;3.80;;;7.80;99.90;;;;;;7355883;32;20149;-61
2022/05/14 02:37:53;;;;;;;6.68;3.42;;;7.70;99.90;;;;;;7347599;32;20578;-61
2022/05/14 02:41:55;;;;;;;5.43;3.37;;;7.70;99.90;;;;;;7355739;32;20194;-60
2022/05/14 02:45:56;;;;;;;11.20;3.15;;;7.70;99.90;;;;;;7355725;32;20651;-60
2022/05/14 02:49:59;;;;;;;7.32;3.62;;;7.70;99.90;;;;;;7349982;32;20162;-60
2022/05/14 02:54:00;;;;;;;9.27;3.20;;;7.70;99.90;;;;;;7362174;32;20111;-61
2022/05/14 02:58:02;;;;;;;5.40;3.58;;;7.60;99.90;;;;;;7345154;32;20133;-60
2022/05/14 03:02:04;;;;;;;4.43;3.53;;;7.60;99.90;;;;;;7316482;32;20212;-60
2022/05/14 03:06:06;;;;;;;7.60;2.97;;;7.60;99.90;;;;;;7240667;32;20212;-60
2022/05/14 03:10:08;;;;;;;7.87;3.45;;;7.60;99.90;;;;;;7239134;32;20137;-61
2022/05/14 03:14:11;;;;;;;5.30;3.03;;;7.60;99.90;;;;;;7238079;32;20108;-61
2022/05/14 03:18:13;;;;;;;7.43;3.40;;;7.60;99.90;;;;;;7315682;32;20230;-60
2022/05/14 03:22:15;;;;;;;5.28;3.10;;;7.60;99.90;;;;;;7286344;32;20196;-61
2022/05/14 03:26:17;;;;;;;5.78;2.75;;;7.60;99.90;;;;;;7224246;32;20804;-61
2022/05/14 03:30:19;;;;;;;6.85;2.70;;;7.50;99.90;;;;;;7225843;32;20834;-60
2022/05/14 03:34:20;;;;;;;4.72;3.05;;;7.50;99.90;;;;;;7226758;32;20180;-61
2022/05/14 03:38:22;;;;;;;3.85;2.83;;;7.50;99.90;;;;;;7225468;32;20658;-60
2022/05/14 03:42:24;;;;;;;3.47;2.80;;;7.50;99.90;;;;;;7274898;32;20135;-60
2022/05/14 03:46:26;;;;;;;8.35;3.47;;;7.40;99.90;;;;;;7275506;32;20511;-61
2022/05/14 03:50:28;;;;;;;6.37;2.67;;;7.40;99.90;;;;;;7268644;32;20117;-60
2022/05/14 03:54:30;;;;;;;4.70;3.12;;;7.50;99.90;;;;;;7228880;32;20128;-60
2022/05/14 03:58:32;;;;;;;5.32;2.80;;;7.40;99.90;;;;;;7226613;32;20159;-60
2022/05/14 04:02:34;;;;;;;5.18;3.33;;;7.30;99.90;;;;;;7289887;32;20538;-63
2022/05/14 04:06:36;;;;;;;4.95;3.15;;;7.40;99.90;;;;;;7360914;32;20107;-61
2022/05/14 04:10:37;;;;;;;4.72;3.03;;;7.40;99.90;;;;;;7361184;32;20157;-62
2022/05/14 04:14:39;;;;;;;8.93;3.00;;;7.50;99.90;;;;;;7357544;32;20125;-62
2022/05/14 04:18:41;;;;;;;5.40;3.20;;;7.50;99.90;;;;;;7343488;32;20125;-62
2022/05/14 04:22:43;;;;;;;4.35;3.05;;;7.50;99.90;;;;;;7357538;32;20178;-61
2022/05/14 04:26:45;;;;;;;4.90;2.75;;;7.60;99.90;;;;;;7355837;32;20134;-61
2022/05/14 04:30:48;;;;;;;7.57;3.28;;;7.60;99.90;;;;;;7344847;32;20649;-61
2022/05/14 04:34:49;;;;;;;4.53;2.67;;;7.70;99.90;;;;;;7343509;32;20106;-62
2022/05/14 04:38:51;;;;;;;4.95;2.53;;;7.90;99.90;;;;;;7351164;32;20108;-61
2022/05/14 04:42:53;;;;;;;5.53;2.72;;;8.20;99.90;;;;;;7356247;32;20107;-61
2022/05/14 04:46:55;;;;;;;4.80;2.42;;;8.40;99.90;;;;;;7346136;32;20107;-61
2022/05/14 04:50:57;;;;;;;5.97;2.33;;;8.70;99.90;;;;;;7341968;32;20197;-61
2022/05/14 04:54:58;;;;;;;4.15;2.20;;;9.00;99.90;;;;;;7349168;32;20121;-61
2022/05/14 04:59:00;;;;;;;5.53;2.58;;;9.50;99.90;;;;;;7352449;32;20110;-62
2022/05/14 05:03:17;;;;;;;5.30;2.17;;;10.00;99.90;;;;;;7284280;32;20117;-61
2022/05/14 05:07:19;;;;;;;4.63;2.50;;;10.60;99.90;;;;;;7242926;32;20192;-62
2022/05/14 05:11:22;;;;;;;3.80;1.92;;;11.10;99.90;;;;;;7228428;32;20274;-62
2022/05/14 05:15:24;;;;;;;4.18;2.47;;;11.20;99.90;;;;;;7237622;32;20203;-62
2022/05/14 05:19:26;;;;;;;5.90;2.08;;;11.20;99.90;;;;;;7235002;32;20121;-61
2022/05/14 05:23:28;;;;;;;9.70;2.45;;;11.10;99.90;;;;;;7281760;32;20140;-63
2022/05/14 05:27:30;;;;;;;7.43;2.30;;;11.10;99.90;;;;;;7238510;32;20230;-61
2022/05/14 05:31:33;;;;;;;10.00;2.25;;;11.20;99.90;;;;;;7231182;32;20524;-61
2022/05/14 05:35:34;;;;;;;5.40;2.45;;;11.20;99.90;;;;;;7240714;32;20163;-61
2022/05/14 05:39:36;;;;;;;9.57;2.75;;;11.20;99.90;;;;;;7238759;32;20862;-61
2022/05/14 05:43:38;;;;;;;7.00;2.37;;;11.20;99.90;;;;;;7249045;32;20112;-61
2022/05/14 05:47:40;;;;;;;7.68;2.47;;;11.20;99.90;;;;;;7234697;32;20113;-61
2022/05/14 05:51:42;;;;;;;11.40;2.67;;;11.30;99.90;;;;;;7287900;32;20120;-60
2022/05/14 06:00:07;;;;;;;7.32;1.92;;;11.60;99.90;;;;;;7237063;32;20712;-61
2022/05/14 06:04:09;;;;;;;10.80;2.40;;;11.80;99.90;;;;;;7287783;32;20136;-60
2022/05/14 06:08:14;;;;;;;6.97;2.08;;;12.00;99.90;;;;;;7240073;32;20147;-61
2022/05/14 06:12:15;;;;;;;4.62;2.17;;;12.20;99.90;;;;;;7224867;32;20650;-61
2022/05/14 06:16:17;;;;;;;6.35;1.90;;;12.40;99.90;;;;;;7285318;32;20238;-61
2022/05/14 06:20:19;;;;;;;11.38;2.12;;;12.50;99.90;;;;;;7290499;32;20121;-61
2022/05/14 06:24:21;;;;;;;9.88;2.40;;;12.90;99.90;;;;;;7240534;32;20185;-62
2022/05/14 06:28:23;;;;;;;10.32;2.00;;;13.70;99.90;;;;;;7234500;32;20164;-61
2022/05/14 06:32:24;;;;;;;6.05;1.67;;;14.60;99.90;;;;;;7231533;32;20164;-63
2022/05/14 06:36:26;;;;;;;12.55;2.60;;;15.60;99.90;;;;;;7232742;32;20414;-64
2022/05/14 06:40:28;;;;;;;7.30;2.22;;;16.30;99.90;;;;;;7232832;32;20127;-64
2022/05/14 06:44:30;;;;;;;10.85;2.28;;;17.30;99.90;;;;;;7237862;32;20138;-65
2022/05/14 06:48:32;;;;;;;8.85;2.28;;;17.30;99.90;;;;;;7280732;32;20525;-64
2022/05/14 06:52:35;;;;;;;9.45;2.53;;;17.40;99.90;;;;;;7238034;32;20109;-64
2022/05/14 06:56:41;;;;;;;7.55;2.55;;;17.40;99.90;;;;;;7292061;32;20244;-64
2022/05/14 07:00:43;;;;;;;8.60;3.03;;;16.90;99.90;;;;;;7287765;32;20113;-64
2022/05/14 07:09:14;;;;;;;12.13;2.60;;;16.40;99.90;;;;;;7236441;32;20131;-64
2022/05/14 07:13:16;;;;;;;10.35;2.83;;;15.90;99.90;;;;;;7229755;32;20113;-64
2022/05/14 07:17:17;;;;;;;11.60;3.28;;;15.60;99.90;;;;;;7231828;32;20323;-65
2022/05/14 07:21:19;;;;;;;12.43;3.55;;;15.30;99.90;;;;;;7234027;32;20119;-64
2022/05/14 07:25:21;;;;;;;12.13;3.05;;;15.10;99.90;;;;;;7231089;32;20105;-64
2022/05/14 07:29:24;;;;;;;14.40;3.70;;;14.90;99.90;;;;;;7291724;32;20255;-63
2022/05/14 07:33:26;;;;;;;8.20;3.17;;;14.80;99.90;;;;;;7229154;32;20250;-63
2022/05/14 07:37:33;;;;;;;14.73;4.75;;;14.80;99.90;;;;;;7232586;32;20211;-62
2022/05/14 07:41:40;;;;;;;17.45;3.90;;;14.60;99.90;;;;;;7277032;32;20134;-63
2022/05/14 07:45:44;;;;;;;13.77;3.58;;;14.70;99.90;;;;;;7235099;32;20464;-62
2022/05/14 07:49:48;;;;;;;13.35;3.45;;;14.70;99.90;;;;;;7225251;32;20681;-62
2022/05/14 07:53:50;;;;;;;15.27;4.00;;;14.70;99.90;;;;;;7290995;32;20204;-64
2022/05/14 07:57:52;;;;;;;9.18;3.58;;;14.70;99.90;;;;;;7236207;32;20104;-63
2022/05/14 08:01:53;;;;;;;17.12;4.60;;;14.70;99.90;;;;;;7277451;32;20223;-63
2022/05/14 08:05:56;;;;;;;15.95;4.72;;;14.90;99.90;;;;;;7360543;32;20506;-63
2022/05/14 08:09:58;;;;;;;9.52;3.80;;;14.90;99.90;;;;;;7361501;32;20212;-63
2022/05/14 08:14:00;;;;;;;11.75;3.50;;;15.00;99.90;;;;;;7369349;32;20446;-64
2022/05/14 08:18:02;;;;;;;14.50;4.28;;;15.10;99.90;;;;;;7355450;32;20127;-63
2022/05/14 08:26:25;;;;;;;10.52;3.25;;;15.80;99.90;;;;;;7371088;32;20103;-63
2022/05/14 08:30:30;;;;;;;15.23;4.20;;;16.60;99.90;;;;;;7368692;32;20098;-64
2022/05/14 08:34:32;;;;;;;11.23;4.18;;;17.00;99.90;;;;;;7363343;32;20107;-64
2022/05/14 08:38:38;;;;;;;13.43;3.83;;;17.80;99.90;;;;;;7359169;32;20100;-64
2022/05/14 08:42:40;;;;;;;14.82;3.60;;;18.70;99.90;;;;;;7360579;32;20165;-64
2022/05/14 08:46:44;;;;;;;14.30;3.62;;;18.90;99.90;;;;;;7361089;32;20486;-62
2022/05/14 08:51:22;;;;;;;11.70;3.33;;;19.30;99.90;;;;;;7342865;32;20427;-63
2022/05/14 08:55:24;;;;;;;10.93;3.60;;;19.40;99.90;;;;;;7348616;32;20119;-63
2022/05/14 08:59:28;;;;;;;11.77;3.05;;;19.90;99.90;;;;;;7366369;32;20264;-63
2022/05/14 09:03:30;;;;;;;9.65;3.00;;;20.30;99.90;;;;;;7359564;32;20107;-63
2022/05/14 09:07:32;;;;;;;22.17;3.53;;;20.70;99.90;;;;;;7353224;32;20331;-62
2022/05/14 09:11:51;;;;;;;12.60;3.60;;;20.90;99.90;;;;;;7368045;32;20259;-63
2022/05/14 09:15:56;;;;;;;11.43;3.08;;;21.10;99.90;;;;;;7351246;32;20130;-63
2022/05/14 09:19:59;;;;;;;11.20;3.30;;;21.30;99.90;;;;;;7363724;32;20424;-63
2022/05/14 09:24:13;;;;;;;10.77;4.05;;;21.80;99.90;;;;;;7364458;32;20149;-62
2022/05/14 09:28:32;;;;;;;8.98;3.20;;;21.60;99.90;;;;;;7352724;32;20518;-63
2022/05/14 09:32:41;;;;;;;10.85;3.28;;;21.80;99.90;;;;;;7369792;32;20106;-63
2022/05/14 09:36:45;;;;;;;16.67;3.92;;;22.30;99.90;;;;;;7343360;32;20146;-63
2022/05/14 09:40:47;;;;;;;12.90;3.70;;;22.60;99.90;;;;;;7362187;32;20099;-63
2022/05/14 09:44:52;;;;;;;14.85;3.30;;;22.10;99.40;;;;;;7362970;32;20157;-65
2022/05/14 09:49:03;;;;;;;13.55;3.60;;;22.60;99.40;;;;;;7353985;32;20146;-62
2022/05/14 09:53:06;;;;;;;12.00;3.55;;;22.70;98.80;;;;;;7361552;32;20296;-63
2022/05/14 09:57:20;;;;;;;15.63;3.87;;;23.30;99.70;;;;;;7336391;32;20532;-65
2022/05/14 10:01:45;;;;;;;11.05;2.75;;;22.90;97.40;;;;;;7366367;32;20111;-63
2022/05/14 10:06:15;;;;;;;13.77;3.67;;;23.30;97.50;;;;;;7357251;32;20110;-63
2022/05/14 10:10:47;;;;;;;12.98;2.90;;;23.10;96.70;;;;;;7366009;32;20116;-62
2022/05/14 10:15:14;;;;;;;11.80;4.00;;;23.50;96.30;;;;;;7361548;32;20353;-63
2022/05/14 10:19:48;;;;;;;14.32;3.70;;;22.20;96.50;;;;;;7359789;32;20125;-63
2022/05/14 10:29:06;;;;;;;13.27;3.15;;;22.90;98.20;;;;;;7369035;32;20182;-63
2022/05/14 10:33:13;;;;;;;16.48;3.72;;;23.30;95.30;;;;;;7333934;32;20506;-58
2022/05/14 10:37:43;;;;;;;14.18;3.30;;;23.30;94.60;;;;;;7349154;32;20386;-58
2022/05/14 10:41:52;;;;;;;13.15;4.35;;;23.50;95.40;;;;;;7355198;32;20472;-57
2022/05/14 10:45:56;;;;;;;15.98;3.85;;;23.50;93.10;;;;;;7357471;32;20217;-57
2022/05/14 10:50:08;;;;;;;11.55;3.00;;;22.60;94.20;;;;;;7355113;32;20099;-58
2022/05/14 10:54:26;;;;;;;14.90;3.95;;;22.00;99.90;;;;;;7354698;32;20382;-58
2022/05/14 10:58:51;;;;;;;15.32;3.62;;;21.50;99.90;;;;;;7366926;32;20278;-58
2022/05/14 11:03:14;;;;;;;12.70;3.33;;;21.60;99.90;;;;;;7358594;32;20538;-64
2022/05/14 11:07:32;;;;;;;9.85;3.05;;;21.40;99.90;;;;;;7358123;32;20111;-64
2022/05/14 11:11:34;;;;;;;12.77;3.28;;;21.70;99.90;;;;;;7361189;32;20588;-63
2022/05/14 11:15:36;;;;;;;7.95;2.70;;;22.30;99.90;;;;;;7357800;32;20172;-63
2022/05/14 11:19:38;;;;;;;10.07;3.10;;;22.40;95.70;;;;;;7337416;32;20470;-63
2022/05/14 11:23:58;;;;;;;11.55;2.80;;;22.00;95.00;;;;;;7364242;32;20487;-63
2022/05/14 11:28:12;;;;;;;11.68;2.40;;;21.40;97.20;;;;;;7359248;32;20099;-63
2022/05/14 11:32:18;;;;;;;13.45;2.58;;;21.50;98.40;;;;;;7363827;32;20125;-64
2022/05/14 11:36:21;;;;;;;15.00;3.15;;;21.70;98.20;;;;;;7356066;32;20179;-60
2022/05/14 11:40:23;;;;;;;9.35;2.72;;;21.90;97.00;;;;;;7360240;32;20129;-59
2022/05/14 11:44:40;;;;;;;16.10;2.75;;;22.10;97.30;;;;;;7365326;32;20103;-63
2022/05/14 11:48:58;;;;;;;12.10;3.40;;;21.70;97.80;;;;;;7351272;32;20137;-63
2022/05/14 11:53:15;;;;;;;10.60;2.60;;;21.80;95.90;;;;;;7370306;32;20536;-63
2022/05/14 11:57:26;;;;;;;9.07;2.47;;;22.00;97.40;;;;;;7358212;32;20128;-63
2022/05/14 12:01:32;;;;;;;14.45;3.20;;;21.90;97.70;;;;;;7371431;32;20133;-62
2022/05/14 12:05:49;;;;;;;11.80;3.08;;;22.20;96.90;;;;;;7370116;32;20236;-62
2022/05/14 12:10:15;;;;;;;7.85;2.60;;;22.10;98.20;;;;;;7362283;32;20103;-63
2022/05/14 12:14:29;;;;;;;11.27;3.37;;;21.60;98.30;;;;;;7359287;32;20103;-63
2022/05/14 12:18:32;;;;;;;13.65;3.67;;;22.00;97.90;;;;;;7372228;32;20339;-63
2022/05/14 12:22:33;;;;;;;9.52;3.10;;;22.00;96.30;;;;;;7350679;32;20091;-63
2022/05/14 12:26:35;;;;;;;12.85;2.92;;;22.20;95.40;;;;;;7364170;32;20103;-63
2022/05/14 12:34:57;;;;;;;11.90;3.10;;;21.10;98.60;;;;;;7360302;32;20158;-58
2022/05/14 12:39:02;;;;;;;12.20;3.00;;;21.20;99.80;;;;;;7353810;32;20110;-58
2022/05/14 12:43:12;;;;;;;13.80;3.22;;;21.10;98.80;;;;;;7357875;32;20111;-58
2022/05/14 12:47:29;;;;;;;9.77;2.97;;;21.20;99.70;;;;;;7371028;32;20583;-57
2022/05/14 12:51:30;;;;;;;11.30;2.83;;;21.60;97.20;;;;;;7366841;32;20125;-58
2022/05/14 12:55:36;;;;;;;10.43;2.70;;;21.60;98.70;;;;;;7354800;32;20368;-58
2022/05/14 12:59:38;;;;;;;11.77;2.62;;;22.20;97.70;;;;;;7359401;32;20216;-58
2022/05/14 13:03:42;;;;;;;9.10;2.92;;;22.30;95.60;;;;;;7355190;32;20115;-58
2022/05/14 13:07:52;;;;;;;10.68;3.22;;;22.40;94.10;;;;;;7366745;32;20130;-58
2022/05/14 13:11:54;;;;;;;9.43;3.03;;;22.60;92.40;;;;;;7363047;32;20111;-58
2022/05/14 13:15:56;;;;;;;10.75;3.25;;;22.60;92.00;;;;;;7346421;32;20107;-58
2022/05/14 13:19:59;;;;;;;14.18;3.50;;;22.50;92.50;;;;;;7346378;32;20170;-58
2022/05/14 13:24:03;;;;;;;11.20;3.50;;;22.50;90.90;;;;;;7364402;32;20189;-57
2022/05/14 13:28:16;;;;;;;9.80;3.28;;;22.40;94.50;;;;;;7362362;32;20217;-57
2022/05/14 13:32:21;;;;;;;11.45;3.15;;;22.30;92.50;;;;;;7356536;32;20194;-57
2022/05/14 13:40:47;;;;;;;10.18;2.75;;;22.10;90.90;;;;;;7347947;32;20107;-58
2022/05/14 13:45:15;;;;;;;8.00;2.67;;;22.40;91.80;;;;;;7339331;32;20221;-58
2022/05/14 13:49:35;;;;;;;13.25;2.90;;;22.50;90.80;;;;;;7357753;32;20108;-63
2022/05/14 13:53:39;;;;;;;10.25;2.65;;;22.60;91.30;;;;;;7362305;32;20103;-63
2022/05/14 13:57:52;;;;;;;10.93;3.03;;;22.60;91.40;;;;;;7363506;32;20133;-64
2022/05/14 14:02:21;;;;;;;12.82;3.62;;;22.80;91.00;;;;;;7356495;32;20112;-63
2022/05/14 14:06:29;;;;;;;9.95;3.33;;;22.60;90.30;;;;;;7360661;32;20103;-63
2022/05/14 14:10:34;;;;;;;8.55;2.55;;;22.30;90.30;;;;;;7350823;32;20229;-63
2022/05/14 14:14:36;;;;;;;10.80;3.05;;;22.60;91.50;;;;;;7356106;32;20103;-64
2022/05/14 14:18:38;;;;;;;12.25;3.08;;;22.70;88.50;;;;;;7364785;32;20112;-64
2022/05/14 14:22:40;;;;;;;11.75;3.25;;;22.70;86.60;;;;;;7347824;32;20462;-64
2022/05/14 14:26:47;;;;;;;11.93;3.05;;;22.70;89.20;;;;;;7364778;32;20536;-63
2022/05/14 14:30:49;;;;;;;9.35;3.30;;;22.70;86.50;;;;;;7363450;32;20217;-63
2022/05/14 14:34:51;;;;;;;10.35;2.85;;;22.60;85.00;;;;;;7357173;32;20140;-64
2022/05/14 14:38:52;;;;;;;10.10;2.50;;;22.50;87.20;;;;;;7362157;32;20946;-63
2022/05/14 14:42:54;;;;;;;13.70;3.40;;;22.50;89.70;;;;;;7361147;32;20122;-64
2022/05/14 14:46:58;;;;;;;13.02;2.75;;;22.50;85.50;;;;;;7363138;32;20133;-64
2022/05/14 14:51:00;;;;;;;12.18;2.85;;;22.60;87.10;;;;;;7366095;32;20198;-64
2022/05/14 14:55:05;;;;;;;7.45;2.50;;;22.80;86.70;;;;;;7361958;32;20129;-64
2022/05/14 14:59:06;;;;;;;13.82;3.10;;;23.40;83.00;;;;;;7359020;32;20476;-63
2022/05/14 15:03:33;;;;;;;13.73;2.70;;;23.50;82.90;;;;;;7361339;32;20172;-58
2022/05/14 15:07:35;;;;;;;12.25;3.42;;;23.40;81.30;;;;;;7354810;32;20455;-58
2022/05/14 15:11:38;;;;;;;11.27;2.47;;;22.90;83.00;;;;;;7350656;32;20111;-58
2022/05/14 15:15:40;;;;;;;10.07;2.90;;;22.70;82.00;;;;;;7356296;32;20228;-59
2022/05/14 15:19:42;;;;;;;9.57;2.22;;;22.80;77.20;;;;;;7363995;32;20372;-58
2022/05/14 15:23:44;;;;;;;9.75;2.30;;;22.50;79.80;;;;;;7365716;32;20524;-58
2022/05/14 15:27:46;;;;;;;10.43;2.30;;;22.70;79.80;;;;;;7358789;32;20165;-58
2022/05/14 15:31:50;;;;;;;11.18;2.90;;;22.60;82.00;;;;;;7359574;32;20103;-61
2022/05/14 15:35:52;;;;;;;11.20;2.83;;;22.80;83.30;;;;;;7350051;32;20964;-58
2022/05/14 15:39:53;;;;;;;13.73;3.45;;;22.90;84.00;;;;;;7349379;32;20125;-58
2022/05/14 15:43:59;;;;;;;9.75;2.62;;;22.90;83.10;;;;;;7350186;32;20165;-58
2022/05/14 15:48:12;;;;;;;11.85;2.87;;;22.70;81.80;;;;;;7362182;32;20103;-65
2022/05/14 15:52:14;;;;;;;9.73;3.03;;;22.50;79.50;;;;;;7344816;32;20518;-64
2022/05/14 15:56:24;;;;;;;9.75;2.58;;;22.50;81.30;;;;;;7367096;32;20110;-64
2022/05/14 16:00:26;;;;;;;8.55;2.53;;;22.30;79.30;;;;;;7362673;32;20117;-65
2022/05/14 16:04:27;;;;;;;13.77;2.70;;;22.30;79.60;;;;;;7364695;32;20644;-64
2022/05/14 16:08:44;;;;;;;9.20;3.03;;;22.40;82.60;;;;;;7355308;32;20111;-64
2022/05/14 16:17:06;;;;;;;7.43;2.60;;;22.20;82.30;;;;;;7365652;32;20106;-64
2022/05/14 16:21:09;;;;;;;9.70;2.97;;;22.00;81.60;;;;;;7357019;32;20257;-64
2022/05/14 16:25:11;;;;;;;11.95;3.33;;;21.90;81.40;;;;;;7348529;32;20103;-64
2022/05/14 16:29:14;;;;;;;13.02;2.58;;;21.50;81.80;;;;;;7350626;32;21985;-64
2022/05/14 16:33:19;;;;;;;9.00;2.75;;;21.60;82.40;;;;;;7344048;32;20347;-64
2022/05/14 16:37:21;;;;;;;16.23;7.72;;;21.60;83.00;;;;;;7358536;32;20502;-64
2022/05/14 16:41:23;;;;;;;12.50;3.30;;;21.70;87.20;;;;;;7353089;32;20118;-65
2022/05/14 16:45:30;;;;;;;8.35;2.80;;;21.70;86.90;;;;;;7359364;32;20434;-64
2022/05/14 16:49:32;;;;;;;11.25;3.28;;;21.50;85.20;;;;;;7372468;32;20719;-64
2022/05/14 16:53:38;;;;;;;9.20;3.45;;;21.20;86.80;;;;;;7359646;32;20115;-65
2022/05/14 16:57:40;;;;;;;11.80;3.07;;;21.30;87.70;;;;;;7354144;32;20462;-64
2022/05/14 17:01:41;;;;;;;11.40;3.28;;;21.20;90.00;;;;;;7365724;32;20129;-64
2022/05/14 17:05:43;;;;;;;11.10;3.30;;;21.10;93.20;;;;;;7363763;32;20244;-64
2022/05/14 17:09:45;;;;;;;10.50;3.42;;;21.10;90.90;;;;;;7365466;32;20099;-65
2022/05/14 17:13:50;;;;;;;9.77;2.97;;;21.30;88.40;;;;;;7336560;32;20169;-64
2022/05/14 17:17:55;;;;;;;14.25;4.15;;;21.00;92.50;;;;;;7367427;32;20240;-64
2022/05/14 17:21:56;;;;;;;13.90;3.37;;;21.00;91.80;;;;;;7359353;32;20126;-64
2022/05/14 17:25:58;;;;;;;10.80;3.17;;;20.80;91.60;;;;;;7372276;32;20130;-65
2022/05/14 17:30:01;;;;;;;12.35;2.97;;;20.80;91.90;;;;;;7367130;32;20224;-63
2022/05/14 17:34:05;;;;;;;10.00;3.40;;;20.70;92.80;;;;;;7362412;32;20111;-65
2022/05/14 17:42:29;;;;;;;10.40;3.58;;;20.60;93.10;;;;;;7361446;32;20112;-64
2022/05/14 17:46:31;;;;;;;6.22;2.70;;;20.60;93.40;;;;;;7358657;32;20571;-64
2022/05/14 17:50:33;;;;;;;6.43;2.47;;;20.70;94.30;;;;;;7361621;32;20224;-64
2022/05/14 17:54:37;;;;;;;12.18;2.87;;;20.60;94.80;;;;;;7359407;32;20286;-64
2022/05/14 17:58:39;;;;;;;10.57;2.87;;;20.60;95.40;;;;;;7343483;32;20492;-65
2022/05/14 18:02:41;;;;;;;11.88;2.47;;;20.40;96.90;;;;;;7358486;32;20592;-63
2022/05/14 18:06:45;;;;;;;10.32;2.60;;;20.30;98.90;;;;;;7336492;32;20202;-64
2022/05/14 18:15:09;;;;;;;8.95;2.80;;;19.90;99.90;;;;;;7358319;32;20130;-64
2022/05/14 18:19:11;;;;;;;7.97;3.05;;;19.70;99.90;;;;;;7357942;32;20676;-64
2022/05/14 18:23:13;;;;;;;7.87;2.97;;;19.50;99.90;;;;;;7339006;32;20129;-64
2022/05/14 18:27:21;;;;;;;12.37;4.68;;;19.30;99.90;;;;;;7344313;32;20134;-65
2022/05/14 18:31:25;;;;;;;11.20;3.60;;;19.10;99.90;;;;;;7365321;32;20339;-64
2022/05/14 18:35:31;;;;;;;11.70;3.35;;;18.90;99.90;;;;;;7356522;32;20115;-64
2022/05/14 18:39:35;;;;;;;18.20;3.65;;;18.80;99.90;;;;;;7342450;32;20526;-65
2022/05/14 18:43:37;;;;;;;10.85;3.20;;;18.40;99.90;;;;;;7365933;32;20589;-65
2022/05/14 18:47:39;;;;;;;8.65;3.47;;;18.10;99.90;;;;;;7369457;32;20111;-65
2022/05/14 18:51:40;;;;;;;13.48;3.78;;;17.90;99.90;;;;;;7355111;32;20190;-64
2022/05/14 18:55:42;;;;;;;9.13;3.67;;;17.70;99.90;;;;;;7357853;32;20125;-65
2022/05/14 18:59:44;;;;;;;16.67;3.92;;;17.40;99.90;;;;;;7359000;32;20107;-65
2022/05/14 19:07:11;;;;;;;9.10;3.83;;;17.20;99.90;;;;;;7354795;32;20119;-65
2022/05/14 19:08:10;;;;;;;11.88;4.00;;;16.90;99.90;;;;;;7360496;32;20103;-65
2022/05/14 19:12:12;;;;;;;8.82;4.20;;;16.80;99.90;;;;;;7355426;32;20381;-65
2022/05/14 19:16:14;;;;;;;13.52;4.57;;;16.50;99.90;;;;;;7339684;32;20637;-64
2022/05/14 19:20:17;;;;;;;14.80;4.28;;;16.30;99.90;;;;;;7356854;32;20175;-65
2022/05/14 19:24:19;;;;;;;9.75;4.20;;;16.20;99.90;;;;;;7358014;32;20480;-66
2022/05/14 19:28:21;;;;;;;17.00;7.53;;;16.00;99.90;;;;;;7365272;32;20173;-62
2022/05/14 19:32:23;;;;;;;11.98;4.93;;;15.70;99.90;;;;;;7358740;32;20444;-62
2022/05/14 19:36:25;;;;;;;13.20;4.85;;;15.50;99.90;;;;;;7344771;32;20111;-62
2022/05/14 19:40:37;;;;;;;15.57;5.22;;;15.30;99.90;;;;;;7356256;32;20107;-62
2022/05/14 19:44:48;;;;;;;11.38;5.43;;;15.20;99.90;;;;;;7361193;32;20245;-62
2022/05/14 19:48:50;;;;;;;19.00;6.00;;;15.00;99.90;;;;;;7346135;32;20162;-61
2022/05/14 19:52:55;;;;;;;18.62;5.68;;;14.80;99.90;;;;;;7357355;32;20119;-62
2022/05/14 19:57:06;;;;;;;11.32;6.12;;;14.60;99.90;;;;;;7347556;32;20126;-62
2022/05/14 20:01:10;;;;;;;11.70;5.78;;;14.40;99.90;;;;;;7323979;32;20159;-62
2022/05/14 20:05:13;;;;;;;13.98;6.32;;;14.30;99.90;;;;;;7310495;32;20136;-62
2022/05/14 20:09:14;;;;;;;15.50;6.37;;;14.10;99.90;;;;;;7240108;32;20148;-62
2022/05/14 20:13:20;;;;;;;12.70;6.70;;;14.00;99.90;;;;;;7241925;32;20672;-62
2022/05/14 20:21:42;;;;;;;15.20;6.60;;;13.80;99.90;;;;;;7245709;32;20356;-61
2022/05/14 20:25:46;;;;;;;11.75;6.28;;;13.60;99.90;;;;;;7278845;32;20244;-62
2022/05/14 20:29:49;;;;;;;12.65;6.18;;;13.50;99.90;;;;;;7301252;32;20108;-62
2022/05/14 20:33:51;;;;;;;17.90;6.50;;;13.40;99.90;;;;;;7288893;32;20225;-60
2022/05/14 20:37:52;;;;;;;14.82;5.90;;;13.30;99.90;;;;;;7239954;32;20135;-61
2022/05/14 20:41:54;;;;;;;15.35;7.03;;;13.20;99.90;;;;;;7234690;32;20572;-61
2022/05/14 20:45:56;;;;;;;11.52;6.37;;;13.20;99.90;;;;;;7296922;32;20109;-61
2022/05/14 20:49:58;;;;;;;12.15;6.32;;;13.00;99.90;;;;;;7246567;32;20123;-61
2022/05/14 20:54:01;;;;;;;16.37;6.90;;;12.90;99.90;;;;;;7245896;32;20136;-62
2022/05/14 20:58:03;;;;;;;14.98;6.68;;;12.80;99.90;;;;;;7238521;32;20192;-62
2022/05/14 21:02:06;;;;;;;10.05;6.25;;;12.70;99.90;;;;;;7241783;32;20128;-62
2022/05/14 21:06:07;;;;;;;9.50;5.80;;;12.60;99.90;;;;;;7238237;32;20203;-61
2022/05/14 21:10:12;;;;;;;11.43;6.25;;;12.50;99.90;;;;;;7280390;32;20124;-60
2022/05/14 21:14:15;;;;;;;11.38;6.25;;;12.50;99.90;;;;;;7230828;32;20131;-62
2022/05/14 21:18:16;;;;;;;11.52;6.43;;;12.40;99.90;;;;;;7312695;32;20262;-62
2022/05/14 21:22:18;;;;;;;12.45;6.78;;;12.30;99.90;;;;;;7288571;32;20539;-60
2022/05/14 21:26:20;;;;;;;12.75;6.18;;;12.30;99.90;;;;;;7232172;32;20105;-61
2022/05/14 21:30:22;;;;;;;9.15;6.00;;;12.20;99.90;;;;;;7243787;32;20143;-62
2022/05/14 21:38:44;;;;;;;17.37;6.72;;;12.00;99.90;;;;;;7244524;32;20112;-61
2022/05/14 21:42:51;;;;;;;14.55;6.85;;;11.90;99.90;;;;;;7290192;32;20104;-61
2022/05/14 21:46:53;;;;;;;11.93;6.95;;;11.90;99.90;;;;;;7244144;32;20180;-61
2022/05/14 21:50:54;;;;;;;10.73;6.75;;;11.80;99.90;;;;;;7232599;32;20175;-62
2022/05/14 21:54:56;;;;;;;14.15;6.82;;;11.70;99.90;;;;;;7242509;32;20108;-62
2022/05/14 21:58:58;;;;;;;11.52;6.30;;;11.70;99.90;;;;;;7293095;32;20109;-62
2022/05/14 22:03:07;;;;;;;15.18;6.85;;;11.70;99.90;;;;;;7234104;32;20109;-62
2022/05/14 22:07:12;;;;;;;9.75;7.15;;;11.60;99.90;;;;;;7282165;32;20385;-61